sensor_id;sensor_type;location;lat;lon;timestamp;pressure;altitude;pressure_sealevel;temperature;humidity
41706;BME280;27385;51.096;17.190;2023-05-02T00:02:10;100045.39;;;12.15;64.45
41706;BME280;27385;51.096;17.190;2023-05-02T00:04:41;100046.16;;;12.10;64.66
41706;BME280;27385;51.096;17.190;2023-05-02T00:07:12;100043.23;;;12.06;64.89
41706;BME280;27385;51.096;17.190;2023-05-02T00:09:43;100040.14;;;12.02;65.03
41706;BME280;27385;51.096;17.190;2023-05-02T00:12:15;100042.91;;;12.00;64.99
41706;BME280;27385;51.096;17.190;2023-05-02T00:14:45;100041.73;;;11.99;65.23
41706;BME280;27385;51.096;17.190;2023-05-02T00:17:19;100040.86;;;11.97;65.21
41706;BME280;27385;51.096;17.190;2023-05-02T00:19:49;100037.45;;;11.97;65.41
41706;BME280;27385;51.096;17.190;2023-05-02T00:22:20;100036.86;;;11.96;65.71
41706;BME280;27385;51.096;17.190;2023-05-02T00:24:55;100037.92;;;11.94;65.87
41706;BME280;27385;51.096;17.190;2023-05-02T00:27:27;100036.89;;;11.93;65.85
41706;BME280;27385;51.096;17.190;2023-05-02T00:29:59;100034.96;;;11.93;65.65
41706;BME280;27385;51.096;17.190;2023-05-02T00:32:29;100038.57;;;11.94;65.76
41706;BME280;27385;51.096;17.190;2023-05-02T00:35:00;100036.23;;;11.94;65.82
41706;BME280;27385;51.096;17.190;2023-05-02T00:37:31;100034.21;;;11.95;65.80
41706;BME280;27385;51.096;17.190;2023-05-02T00:40:02;100030.25;;;11.95;65.82
41706;BME280;27385;51.096;17.190;2023-05-02T00:42:34;100029.95;;;11.95;65.93
41706;BME280;27385;51.096;17.190;2023-05-02T00:45:06;100027.24;;;11.95;65.90
41706;BME280;27385;51.096;17.190;2023-05-02T00:47:37;100026.95;;;11.95;65.79
41706;BME280;27385;51.096;17.190;2023-05-02T00:50:09;100028.05;;;11.95;65.92
41706;BME280;27385;51.096;17.190;2023-05-02T00:52:41;100030.33;;;11.94;66.01
41706;BME280;27385;51.096;17.190;2023-05-02T00:55:12;100031.61;;;11.94;66.07
41706;BME280;27385;51.096;17.190;2023-05-02T00:57:43;100023.38;;;11.94;66.14
41706;BME280;27385;51.096;17.190;2023-05-02T01:00:15;100018.38;;;11.94;66.11
41706;BME280;27385;51.096;17.190;2023-05-02T01:02:49;100017.04;;;11.92;66.30
41706;BME280;27385;51.096;17.190;2023-05-02T01:05:26;100014.88;;;11.89;66.37
41706;BME280;27385;51.096;17.190;2023-05-02T01:08:09;100018.00;;;11.87;66.51
41706;BME280;27385;51.096;17.190;2023-05-02T01:10:51;100018.75;;;11.85;66.35
41706;BME280;27385;51.096;17.190;2023-05-02T01:13:27;100022.84;;;11.82;66.51
41706;BME280;27385;51.096;17.190;2023-05-02T01:15:59;100024.45;;;11.80;66.70
41706;BME280;27385;51.096;17.190;2023-05-02T01:18:35;100021.17;;;11.78;66.67
41706;BME280;27385;51.096;17.190;2023-05-02T01:21:10;100019.52;;;11.77;66.69
41706;BME280;27385;51.096;17.190;2023-05-02T01:23:49;100022.80;;;11.75;66.91
41706;BME280;27385;51.096;17.190;2023-05-02T01:26:29;100022.07;;;11.72;67.08
41706;BME280;27385;51.096;17.190;2023-05-02T01:29:03;100018.55;;;11.67;67.14
41706;BME280;27385;51.096;17.190;2023-05-02T01:31:38;100023.83;;;11.63;67.38
41706;BME280;27385;51.096;17.190;2023-05-02T01:34:11;100022.52;;;11.60;67.59
41706;BME280;27385;51.096;17.190;2023-05-02T01:36:43;100022.39;;;11.58;67.72
41706;BME280;27385;51.096;17.190;2023-05-02T01:39:19;100026.10;;;11.57;67.55
41706;BME280;27385;51.096;17.190;2023-05-02T01:41:51;100022.42;;;11.57;67.71
41706;BME280;27385;51.096;17.190;2023-05-02T01:44:24;100024.86;;;11.57;67.68
41706;BME280;27385;51.096;17.190;2023-05-02T01:46:57;100023.64;;;11.57;67.78
41706;BME280;27385;51.096;17.190;2023-05-02T01:49:31;100021.04;;;11.55;68.09
41706;BME280;27385;51.096;17.190;2023-05-02T01:52:06;100022.03;;;11.53;68.26
41706;BME280;27385;51.096;17.190;2023-05-02T01:54:40;100024.05;;;11.53;68.34
41706;BME280;27385;51.096;17.190;2023-05-02T01:57:12;100031.66;;;11.51;68.61
41706;BME280;27385;51.096;17.190;2023-05-02T01:59:45;100028.05;;;11.50;68.47
41706;BME280;27385;51.096;17.190;2023-05-02T02:02:17;100031.86;;;11.51;68.76
41706;BME280;27385;51.096;17.190;2023-05-02T02:04:49;100030.80;;;11.50;68.73
41706;BME280;27385;51.096;17.190;2023-05-02T02:07:22;100029.36;;;11.50;68.80
41706;BME280;27385;51.096;17.190;2023-05-02T02:09:53;100032.88;;;11.51;68.62
41706;BME280;27385;51.096;17.190;2023-05-02T02:12:27;100032.54;;;11.53;68.50
41706;BME280;27385;51.096;17.190;2023-05-02T02:15:02;100034.80;;;11.54;68.63
41706;BME280;27385;51.096;17.190;2023-05-02T02:17:38;100038.98;;;11.55;68.59
41706;BME280;27385;51.096;17.190;2023-05-02T02:20:11;100038.63;;;11.55;68.58
41706;BME280;27385;51.096;17.190;2023-05-02T02:22:43;100044.33;;;11.56;68.42
41706;BME280;27385;51.096;17.190;2023-05-02T02:25:16;100044.07;;;11.56;68.52
41706;BME280;27385;51.096;17.190;2023-05-02T02:27:48;100044.88;;;11.56;68.71
41706;BME280;27385;51.096;17.190;2023-05-02T02:30:18;100049.30;;;11.56;68.63
41706;BME280;27385;51.096;17.190;2023-05-02T02:32:49;100051.79;;;11.54;68.64
41706;BME280;27385;51.096;17.190;2023-05-02T02:35:20;100052.58;;;11.53;68.72
41706;BME280;27385;51.096;17.190;2023-05-02T02:37:56;100057.04;;;11.52;68.94
41706;BME280;27385;51.096;17.190;2023-05-02T02:40:33;100059.46;;;11.50;68.99
41706;BME280;27385;51.096;17.190;2023-05-02T02:43:11;100065.98;;;11.48;69.17
41706;BME280;27385;51.096;17.190;2023-05-02T02:45:50;100067.69;;;11.46;69.08
41706;BME280;27385;51.096;17.190;2023-05-02T02:48:29;100072.64;;;11.43;69.32
41706;BME280;27385;51.096;17.190;2023-05-02T02:51:09;100077.34;;;11.41;69.30
41706;BME280;27385;51.096;17.190;2023-05-02T02:53:50;100074.50;;;11.38;69.39
41706;BME280;27385;51.096;17.190;2023-05-02T02:56:31;100082.40;;;11.36;69.76
41706;BME280;27385;51.096;17.190;2023-05-02T02:59:10;100087.27;;;11.32;69.86
41706;BME280;27385;51.096;17.190;2023-05-02T03:01:45;100092.38;;;11.29;70.04
41706;BME280;27385;51.096;17.190;2023-05-02T03:04:19;100090.52;;;11.24;70.24
41706;BME280;27385;51.096;17.190;2023-05-02T03:06:51;100092.66;;;11.20;70.36
41706;BME280;27385;51.096;17.190;2023-05-02T03:09:22;100100.36;;;11.20;70.54
41706;BME280;27385;51.096;17.190;2023-05-02T03:11:54;100098.08;;;11.16;70.99
41706;BME280;27385;51.096;17.190;2023-05-02T03:14:25;100101.66;;;11.14;70.95
41706;BME280;27385;51.096;17.190;2023-05-02T03:16:56;100101.56;;;11.11;71.29
41706;BME280;27385;51.096;17.190;2023-05-02T03:19:27;100100.63;;;11.10;71.54
41706;BME280;27385;51.096;17.190;2023-05-02T03:21:58;100102.88;;;11.10;71.43
41706;BME280;27385;51.096;17.190;2023-05-02T03:24:29;100104.38;;;11.12;71.56
41706;BME280;27385;51.096;17.190;2023-05-02T03:27:00;100107.23;;;11.13;71.55
41706;BME280;27385;51.096;17.190;2023-05-02T03:29:31;100104.94;;;11.12;71.80
41706;BME280;27385;51.096;17.190;2023-05-02T03:32:02;100107.92;;;11.12;71.76
41706;BME280;27385;51.096;17.190;2023-05-02T03:34:33;100110.67;;;11.12;71.90
41706;BME280;27385;51.096;17.190;2023-05-02T03:37:03;100114.64;;;11.12;72.00
41706;BME280;27385;51.096;17.190;2023-05-02T03:39:34;100119.81;;;11.12;72.11
41706;BME280;27385;51.096;17.190;2023-05-02T03:42:05;100123.59;;;11.13;71.82
41706;BME280;27385;51.096;17.190;2023-05-02T03:44:36;100130.63;;;11.15;71.92
41706;BME280;27385;51.096;17.190;2023-05-02T03:47:07;100137.33;;;11.18;71.93
41706;BME280;27385;51.096;17.190;2023-05-02T03:49:38;100140.93;;;11.21;72.06
41706;BME280;27385;51.096;17.190;2023-05-02T03:52:09;100139.56;;;11.24;71.98
41706;BME280;27385;51.096;17.190;2023-05-02T03:54:40;100141.58;;;11.27;72.03
41706;BME280;27385;51.096;17.190;2023-05-02T03:57:12;100142.40;;;11.31;72.02
41706;BME280;27385;51.096;17.190;2023-05-02T03:59:42;100141.17;;;11.34;72.01
41706;BME280;27385;51.096;17.190;2023-05-02T04:02:14;100142.05;;;11.39;71.77
41706;BME280;27385;51.096;17.190;2023-05-02T04:04:45;100150.41;;;11.44;71.91
41706;BME280;27385;51.096;17.190;2023-05-02T04:07:16;100159.65;;;11.48;72.09
41706;BME280;27385;51.096;17.190;2023-05-02T04:09:47;100156.62;;;11.52;71.97
41706;BME280;27385;51.096;17.190;2023-05-02T04:12:18;100157.45;;;11.57;71.94
41706;BME280;27385;51.096;17.190;2023-05-02T04:14:50;100162.39;;;11.61;72.00
41706;BME280;27385;51.096;17.190;2023-05-02T04:17:21;100168.11;;;11.66;71.80
41706;BME280;27385;51.096;17.190;2023-05-02T04:19:52;100180.95;;;11.71;71.89
41706;BME280;27385;51.096;17.190;2023-05-02T04:22:23;100179.19;;;11.76;71.89
41706;BME280;27385;51.096;17.190;2023-05-02T04:24:54;100186.84;;;11.82;71.85
41706;BME280;27385;51.096;17.190;2023-05-02T04:27:25;100190.27;;;11.88;71.84
41706;BME280;27385;51.096;17.190;2023-05-02T04:29:57;100191.80;;;11.93;71.64
41706;BME280;27385;51.096;17.190;2023-05-02T04:32:28;100202.42;;;11.98;71.71
41706;BME280;27385;51.096;17.190;2023-05-02T04:34:58;100202.58;;;12.03;71.77
41706;BME280;27385;51.096;17.190;2023-05-02T04:37:30;100211.64;;;12.07;71.79
41706;BME280;27385;51.096;17.190;2023-05-02T04:40:01;100210.69;;;12.09;72.08
41706;BME280;27385;51.096;17.190;2023-05-02T04:42:32;100207.65;;;12.11;72.29
41706;BME280;27385;51.096;17.190;2023-05-02T04:45:04;100217.64;;;12.11;72.57
41706;BME280;27385;51.096;17.190;2023-05-02T04:47:35;100220.46;;;12.09;73.01
41706;BME280;27385;51.096;17.190;2023-05-02T04:50:08;100223.80;;;12.07;73.27
41706;BME280;27385;51.096;17.190;2023-05-02T04:52:39;100229.77;;;12.05;73.60
41706;BME280;27385;51.096;17.190;2023-05-02T04:55:10;100237.46;;;12.02;73.82
41706;BME280;27385;51.096;17.190;2023-05-02T04:57:41;100238.55;;;12.00;74.19
41706;BME280;27385;51.096;17.190;2023-05-02T05:00:14;100239.90;;;11.98;74.52
41706;BME280;27385;51.096;17.190;2023-05-02T05:02:45;100240.30;;;11.97;75.04
41706;BME280;27385;51.096;17.190;2023-05-02T05:05:16;100244.58;;;11.95;75.53
41706;BME280;27385;51.096;17.190;2023-05-02T05:07:47;100242.06;;;11.93;75.97
41706;BME280;27385;51.096;17.190;2023-05-02T05:10:17;100239.59;;;11.90;76.27
41706;BME280;27385;51.096;17.190;2023-05-02T05:12:48;100240.80;;;11.86;76.40
41706;BME280;27385;51.096;17.190;2023-05-02T05:15:20;100247.79;;;11.84;76.89
41706;BME280;27385;51.096;17.190;2023-05-02T05:17:52;100249.95;;;11.81;77.27
41706;BME280;27385;51.096;17.190;2023-05-02T05:20:23;100254.45;;;11.79;77.37
41706;BME280;27385;51.096;17.190;2023-05-02T05:22:54;100255.73;;;11.79;77.88
41706;BME280;27385;51.096;17.190;2023-05-02T05:25:26;100259.75;;;11.80;78.04
41706;BME280;27385;51.096;17.190;2023-05-02T05:27:57;100258.33;;;11.83;78.60
41706;BME280;27385;51.096;17.190;2023-05-02T05:30:28;100266.96;;;11.84;78.78
41706;BME280;27385;51.096;17.190;2023-05-02T05:33:00;100271.23;;;11.84;79.27
41706;BME280;27385;51.096;17.190;2023-05-02T05:35:31;100273.17;;;11.83;79.27
41706;BME280;27385;51.096;17.190;2023-05-02T05:38:02;100276.53;;;11.84;79.58
41706;BME280;27385;51.096;17.190;2023-05-02T05:40:33;100278.27;;;11.85;80.04
41706;BME280;27385;51.096;17.190;2023-05-02T05:43:04;100275.98;;;11.83;80.10
41706;BME280;27385;51.096;17.190;2023-05-02T05:45:35;100279.07;;;11.83;80.32
41706;BME280;27385;51.096;17.190;2023-05-02T05:48:07;100281.91;;;11.84;80.42
41706;BME280;27385;51.096;17.190;2023-05-02T05:50:38;100286.37;;;11.86;80.68
41706;BME280;27385;51.096;17.190;2023-05-02T05:53:09;100288.18;;;11.88;80.65
41706;BME280;27385;51.096;17.190;2023-05-02T05:55:40;100293.97;;;11.91;81.16
41706;BME280;27385;51.096;17.190;2023-05-02T05:58:11;100297.70;;;11.95;81.24
41706;BME280;27385;51.096;17.190;2023-05-02T06:00:42;100296.13;;;11.99;81.89
41706;BME280;27385;51.096;17.190;2023-05-02T06:03:12;100296.06;;;12.02;82.15
41706;BME280;27385;51.096;17.190;2023-05-02T06:05:44;100300.52;;;12.03;82.30
41706;BME280;27385;51.096;17.190;2023-05-02T06:08:15;100302.48;;;12.06;82.50
41706;BME280;27385;51.096;17.190;2023-05-02T06:10:46;100300.64;;;12.08;82.71
41706;BME280;27385;51.096;17.190;2023-05-02T06:13:17;100305.15;;;12.11;83.24
41706;BME280;27385;51.096;17.190;2023-05-02T06:15:48;100316.59;;;12.15;83.56
41706;BME280;27385;51.096;17.190;2023-05-02T06:18:18;100319.13;;;12.17;83.71
41706;BME280;27385;51.096;17.190;2023-05-02T06:20:49;100319.42;;;12.21;83.67
41706;BME280;27385;51.096;17.190;2023-05-02T06:23:20;100322.27;;;12.25;83.85
41706;BME280;27385;51.096;17.190;2023-05-02T06:25:51;100324.17;;;12.30;83.94
41706;BME280;27385;51.096;17.190;2023-05-02T06:28:22;100323.23;;;12.35;84.07
41706;BME280;27385;51.096;17.190;2023-05-02T06:30:59;100325.05;;;12.42;84.30
41706;BME280;27385;51.096;17.190;2023-05-02T06:33:30;100327.30;;;12.47;84.30
41706;BME280;27385;51.096;17.190;2023-05-02T06:36:02;100330.47;;;12.51;84.13
41706;BME280;27385;51.096;17.190;2023-05-02T06:38:32;100337.70;;;12.56;84.19
41706;BME280;27385;51.096;17.190;2023-05-02T06:41:03;100340.80;;;12.60;84.20
41706;BME280;27385;51.096;17.190;2023-05-02T06:43:34;100343.02;;;12.61;84.32
41706;BME280;27385;51.096;17.190;2023-05-02T06:46:05;100344.93;;;12.64;84.48
41706;BME280;27385;51.096;17.190;2023-05-02T06:48:37;100344.55;;;12.67;84.57
41706;BME280;27385;51.096;17.190;2023-05-02T06:51:08;100349.20;;;12.69;84.69
41706;BME280;27385;51.096;17.190;2023-05-02T06:53:39;100357.30;;;12.71;84.64
41706;BME280;27385;51.096;17.190;2023-05-02T06:56:10;100356.88;;;12.74;84.70
41706;BME280;27385;51.096;17.190;2023-05-02T06:58:44;100359.94;;;12.76;84.60
41706;BME280;27385;51.096;17.190;2023-05-02T07:01:15;100363.40;;;12.80;84.93
41706;BME280;27385;51.096;17.190;2023-05-02T07:03:46;100366.38;;;12.85;84.84
41706;BME280;27385;51.096;17.190;2023-05-02T07:06:17;100375.00;;;12.91;84.83
41706;BME280;27385;51.096;17.190;2023-05-02T07:08:48;100374.35;;;12.96;84.57
41706;BME280;27385;51.096;17.190;2023-05-02T07:11:19;100374.25;;;13.04;84.87
41706;BME280;27385;51.096;17.190;2023-05-02T07:13:52;100375.27;;;13.08;84.82
41706;BME280;27385;51.096;17.190;2023-05-02T07:16:23;100378.45;;;13.14;84.78
41706;BME280;27385;51.096;17.190;2023-05-02T07:18:54;100381.86;;;13.18;84.72
41706;BME280;27385;51.096;17.190;2023-05-02T07:21:25;100382.11;;;13.22;84.79
41706;BME280;27385;51.096;17.190;2023-05-02T07:23:55;100388.02;;;13.27;84.92
41706;BME280;27385;51.096;17.190;2023-05-02T07:26:28;100390.62;;;13.32;85.05
41706;BME280;27385;51.096;17.190;2023-05-02T07:28:59;100387.72;;;13.37;84.87
41706;BME280;27385;51.096;17.190;2023-05-02T07:31:30;100390.31;;;13.43;85.12
41706;BME280;27385;51.096;17.190;2023-05-02T07:34:00;100394.16;;;13.50;85.30
41706;BME280;27385;51.096;17.190;2023-05-02T07:36:31;100391.68;;;13.58;85.52
41706;BME280;27385;51.096;17.190;2023-05-02T07:39:02;100392.68;;;13.66;85.61
41706;BME280;27385;51.096;17.190;2023-05-02T07:41:33;100399.58;;;13.75;85.47
41706;BME280;27385;51.096;17.190;2023-05-02T07:44:04;100403.48;;;13.83;85.23
41706;BME280;27385;51.096;17.190;2023-05-02T07:46:35;100407.05;;;13.89;85.25
41706;BME280;27385;51.096;17.190;2023-05-02T07:49:06;100409.16;;;13.99;85.48
41706;BME280;27385;51.096;17.190;2023-05-02T07:51:38;100410.20;;;14.07;85.57
41706;BME280;27385;51.096;17.190;2023-05-02T07:54:17;100412.16;;;14.17;85.43
41706;BME280;27385;51.096;17.190;2023-05-02T07:56:48;100416.44;;;14.28;85.21
41706;BME280;27385;51.096;17.190;2023-05-02T07:59:19;100421.42;;;14.37;85.35
41706;BME280;27385;51.096;17.190;2023-05-02T08:01:50;100418.56;;;14.45;84.92
41706;BME280;27385;51.096;17.190;2023-05-02T08:04:21;100418.00;;;14.54;84.70
41706;BME280;27385;51.096;17.190;2023-05-02T08:06:52;100420.34;;;14.63;84.70
41706;BME280;27385;51.096;17.190;2023-05-02T08:09:22;100423.35;;;14.70;83.99
41706;BME280;27385;51.096;17.190;2023-05-02T08:11:53;100424.15;;;14.76;84.35
41706;BME280;27385;51.096;17.190;2023-05-02T08:14:24;100431.86;;;14.85;84.26
41706;BME280;27385;51.096;17.190;2023-05-02T08:16:55;100432.11;;;14.95;83.75
41706;BME280;27385;51.096;17.190;2023-05-02T08:19:26;100431.63;;;15.04;83.76
41706;BME280;27385;51.096;17.190;2023-05-02T08:21:58;100436.61;;;15.11;83.25
41706;BME280;27385;51.096;17.190;2023-05-02T08:24:29;100431.02;;;15.16;83.12
41706;BME280;27385;51.096;17.190;2023-05-02T08:27:00;100431.09;;;15.22;83.02
41706;BME280;27385;51.096;17.190;2023-05-02T08:29:32;100431.81;;;15.27;82.86
41706;BME280;27385;51.096;17.190;2023-05-02T08:32:03;100432.76;;;15.34;82.82
41706;BME280;27385;51.096;17.190;2023-05-02T08:34:34;100436.20;;;15.40;82.52
41706;BME280;27385;51.096;17.190;2023-05-02T08:37:09;100436.29;;;15.44;81.90
41706;BME280;27385;51.096;17.190;2023-05-02T08:39:40;100439.48;;;15.49;81.69
41706;BME280;27385;51.096;17.190;2023-05-02T08:42:11;100438.55;;;15.55;81.85
41706;BME280;27385;51.096;17.190;2023-05-02T08:44:42;100439.90;;;15.60;81.46
41706;BME280;27385;51.096;17.190;2023-05-02T08:47:14;100442.05;;;15.66;81.72
41706;BME280;27385;51.096;17.190;2023-05-02T08:49:45;100445.90;;;15.73;81.19
41706;BME280;27385;51.096;17.190;2023-05-02T08:52:20;100448.98;;;15.78;81.29
41706;BME280;27385;51.096;17.190;2023-05-02T08:54:52;100452.38;;;15.86;80.94
41706;BME280;27385;51.096;17.190;2023-05-02T08:57:24;100454.83;;;15.87;80.34
41706;BME280;27385;51.096;17.190;2023-05-02T08:59:55;100455.04;;;15.90;80.31
41706;BME280;27385;51.096;17.190;2023-05-02T09:02:36;100459.95;;;15.95;80.36
41706;BME280;27385;51.096;17.190;2023-05-02T09:05:12;100459.55;;;15.99;80.24
41706;BME280;27385;51.096;17.190;2023-05-02T09:07:47;100463.19;;;16.02;79.94
41706;BME280;27385;51.096;17.190;2023-05-02T09:10:19;100467.70;;;16.05;79.82
41706;BME280;27385;51.096;17.190;2023-05-02T09:12:51;100473.22;;;16.09;79.61
41706;BME280;27385;51.096;17.190;2023-05-02T09:15:22;100476.35;;;16.11;79.66
41706;BME280;27385;51.096;17.190;2023-05-02T09:17:55;100480.14;;;16.16;79.74
41706;BME280;27385;51.096;17.190;2023-05-02T09:20:26;100481.77;;;16.21;79.17
41706;BME280;27385;51.096;17.190;2023-05-02T09:22:58;100481.94;;;16.27;79.42
41706;BME280;27385;51.096;17.190;2023-05-02T09:25:49;100483.67;;;16.29;79.07
41706;BME280;27385;51.096;17.190;2023-05-02T09:28:20;100487.62;;;16.31;78.73
41706;BME280;27385;51.096;17.190;2023-05-02T09:31:09;100490.13;;;16.34;78.64
41706;BME280;27385;51.096;17.190;2023-05-02T09:33:41;100490.33;;;16.38;78.67
41706;BME280;27385;51.096;17.190;2023-05-02T09:36:14;100494.27;;;16.42;78.25
41706;BME280;27385;51.096;17.190;2023-05-02T09:38:46;100494.27;;;16.46;78.38
41706;BME280;27385;51.096;17.190;2023-05-02T09:41:18;100502.85;;;16.52;78.07
41706;BME280;27385;51.096;17.190;2023-05-02T09:43:56;100503.14;;;16.60;77.84
41706;BME280;27385;51.096;17.190;2023-05-02T09:46:40;100508.88;;;16.67;77.91
41706;BME280;27385;51.096;17.190;2023-05-02T09:49:11;100513.31;;;16.78;77.60
41706;BME280;27385;51.096;17.190;2023-05-02T09:51:43;100506.33;;;16.85;77.32
41706;BME280;27385;51.096;17.190;2023-05-02T09:54:17;100512.41;;;16.94;76.91
41706;BME280;27385;51.096;17.190;2023-05-02T09:57:09;100513.98;;;17.03;76.35
41706;BME280;27385;51.096;17.190;2023-05-02T09:59:41;100513.89;;;17.12;76.68
41706;BME280;27385;51.096;17.190;2023-05-02T10:02:11;100515.30;;;17.23;76.38
41706;BME280;27385;51.096;17.190;2023-05-02T10:04:43;100516.91;;;17.30;75.04
41706;BME280;27385;51.096;17.190;2023-05-02T10:07:16;100517.73;;;17.32;74.28
41706;BME280;27385;51.096;17.190;2023-05-02T10:09:48;100518.36;;;17.37;75.04
41706;BME280;27385;51.096;17.190;2023-05-02T10:12:22;100517.45;;;17.44;74.53
41706;BME280;27385;51.096;17.190;2023-05-02T10:14:59;100521.15;;;17.53;73.85
41706;BME280;27385;51.096;17.190;2023-05-02T10:17:32;100519.20;;;17.61;74.01
41706;BME280;27385;51.096;17.190;2023-05-02T10:20:08;100518.66;;;17.70;73.76
41706;BME280;27385;51.096;17.190;2023-05-02T10:22:41;100522.59;;;17.80;73.61
41706;BME280;27385;51.096;17.190;2023-05-02T10:25:13;100520.43;;;17.90;72.15
41706;BME280;27385;51.096;17.190;2023-05-02T10:27:44;100525.64;;;17.95;71.71
41706;BME280;27385;51.096;17.190;2023-05-02T10:30:15;100524.69;;;17.98;69.95
41706;BME280;27385;51.096;17.190;2023-05-02T10:32:48;100522.98;;;17.99;69.97
41706;BME280;27385;51.096;17.190;2023-05-02T10:35:21;100526.02;;;18.06;69.72
41706;BME280;27385;51.096;17.190;2023-05-02T10:37:53;100526.86;;;18.12;69.54
41706;BME280;27385;51.096;17.190;2023-05-02T10:40:24;100528.09;;;18.19;68.82
41706;BME280;27385;51.096;17.190;2023-05-02T10:42:56;100525.23;;;18.21;68.27
41706;BME280;27385;51.096;17.190;2023-05-02T10:45:35;100530.59;;;18.20;67.55
41706;BME280;27385;51.096;17.190;2023-05-02T10:48:19;100530.89;;;18.21;67.41
41706;BME280;27385;51.096;17.190;2023-05-02T10:50:52;100534.74;;;18.23;67.03
41706;BME280;27385;51.096;17.190;2023-05-02T10:53:25;100534.81;;;18.25;67.71
41706;BME280;27385;51.096;17.190;2023-05-02T10:56:16;100529.23;;;18.31;66.88
41706;BME280;27385;51.096;17.190;2023-05-02T10:58:50;100535.55;;;18.33;65.83
41706;BME280;27385;51.096;17.190;2023-05-02T11:01:35;100537.58;;;18.33;65.88
41706;BME280;27385;51.096;17.190;2023-05-02T11:04:09;100537.42;;;18.33;65.20
41706;BME280;27385;51.096;17.190;2023-05-02T11:09:41;100532.55;;;18.39;64.58
41706;BME280;27385;51.096;17.190;2023-05-02T11:12:44;100540.20;;;18.43;63.84
41706;BME280;27385;51.096;17.190;2023-05-02T11:18:24;100543.56;;;18.48;61.50
41706;BME280;27385;51.096;17.190;2023-05-02T11:21:27;100544.55;;;18.47;59.97
41706;BME280;27385;51.096;17.190;2023-05-02T11:27:38;100549.45;;;18.45;58.57
41706;BME280;27385;51.096;17.190;2023-05-02T11:30:13;100556.55;;;18.43;57.82
41706;BME280;27385;51.096;17.190;2023-05-02T11:33:19;100556.54;;;18.42;57.78
41706;BME280;27385;51.096;17.190;2023-05-02T11:35:50;100561.63;;;18.43;57.63
41706;BME280;27385;51.096;17.190;2023-05-02T11:38:21;100558.17;;;18.47;57.68
41706;BME280;27385;51.096;17.190;2023-05-02T11:40:57;100564.15;;;18.52;57.28
41706;BME280;27385;51.096;17.190;2023-05-02T11:43:29;100568.02;;;18.54;56.74
41706;BME280;27385;51.096;17.190;2023-05-02T11:46:00;100569.02;;;18.52;55.49
41706;BME280;27385;51.096;17.190;2023-05-02T11:48:33;100570.47;;;18.51;54.75
41706;BME280;27385;51.096;17.190;2023-05-02T11:51:05;100570.70;;;18.49;54.12
41706;BME280;27385;51.096;17.190;2023-05-02T11:53:40;100571.56;;;18.49;53.86
41706;BME280;27385;51.096;17.190;2023-05-02T11:56:11;100574.73;;;18.52;53.90
41706;BME280;27385;51.096;17.190;2023-05-02T11:58:42;100573.89;;;18.54;53.82
41706;BME280;27385;51.096;17.190;2023-05-02T12:01:16;100572.42;;;18.57;53.36
41706;BME280;27385;51.096;17.190;2023-05-02T12:03:47;100573.21;;;18.62;53.54
41706;BME280;27385;51.096;17.190;2023-05-02T12:06:20;100571.91;;;18.69;52.98
41706;BME280;27385;51.096;17.190;2023-05-02T12:08:51;100571.11;;;18.73;52.27
41706;BME280;27385;51.096;17.190;2023-05-02T12:11:45;100564.33;;;18.79;52.30
41706;BME280;27385;51.096;17.190;2023-05-02T12:14:28;100565.37;;;18.87;51.95
41706;BME280;27385;51.096;17.190;2023-05-02T12:17:02;100564.68;;;18.95;51.94
41706;BME280;27385;51.096;17.190;2023-05-02T12:19:33;100562.65;;;19.03;51.08
41706;BME280;27385;51.096;17.190;2023-05-02T12:22:06;100561.69;;;19.05;51.10
41706;BME280;27385;51.096;17.190;2023-05-02T12:24:37;100564.66;;;19.11;51.41
41706;BME280;27385;51.096;17.190;2023-05-02T12:27:13;100561.86;;;19.19;50.83
41706;BME280;27385;51.096;17.190;2023-05-02T12:29:46;100565.56;;;19.24;50.58
41706;BME280;27385;51.096;17.190;2023-05-02T12:32:28;100565.59;;;19.30;50.31
41706;BME280;27385;51.096;17.190;2023-05-02T12:35:00;100569.01;;;19.35;50.58
41706;BME280;27385;51.096;17.190;2023-05-02T12:37:31;100574.15;;;19.44;50.35
41706;BME280;27385;51.096;17.190;2023-05-02T12:40:02;100574.70;;;19.49;49.86
41706;BME280;27385;51.096;17.190;2023-05-02T12:42:58;100581.19;;;19.50;49.29
41706;BME280;27385;51.096;17.190;2023-05-02T12:45:32;100583.09;;;19.46;49.19
41706;BME280;27385;51.096;17.190;2023-05-02T12:48:18;100579.16;;;19.40;49.03
41706;BME280;27385;51.096;17.190;2023-05-02T12:50:49;100588.92;;;19.36;49.22
41706;BME280;27385;51.096;17.190;2023-05-02T12:56:19;100610.95;;;19.12;48.73
41706;BME280;27385;51.096;17.190;2023-05-02T12:58:53;100628.98;;;18.83;48.95
41706;BME280;27385;51.096;17.190;2023-05-02T13:01:24;100643.38;;;18.20;49.90
41706;BME280;27385;51.096;17.190;2023-05-02T13:03:55;100648.61;;;17.57;51.36
41706;BME280;27385;51.096;17.190;2023-05-02T13:06:26;100643.73;;;17.05;52.60
41706;BME280;27385;51.096;17.190;2023-05-02T13:08:57;100646.13;;;16.64;53.83
41706;BME280;27385;51.096;17.190;2023-05-02T13:11:28;100641.95;;;16.29;54.63
41706;BME280;27385;51.096;17.190;2023-05-02T13:13:59;100638.74;;;15.98;56.02
41706;BME280;27385;51.096;17.190;2023-05-02T13:16:46;100636.45;;;15.76;56.52
41706;BME280;27385;51.096;17.190;2023-05-02T13:19:18;100637.92;;;15.62;57.27
41706;BME280;27385;51.096;17.190;2023-05-02T13:21:49;100638.73;;;15.51;58.20
41706;BME280;27385;51.096;17.190;2023-05-02T13:24:20;100637.55;;;15.41;58.66